createdAt,value
2018-07-25T00:00:39.515Z,45.30
2018-07-25T00:03:07.981Z,50.90
2018-07-25T00:05:36.553Z,47.20
2018-07-25T00:08:05.102Z,58.00
2018-07-25T00:11:06.398Z,40.20
2018-07-25T00:13:34.903Z,45.30
2018-07-25T00:16:03.415Z,47.50
2018-07-25T00:18:31.895Z,72.90
2018-07-25T00:21:00.363Z,69.10
2018-07-25T00:23:28.954Z,79.30
2018-07-25T00:25:57.425Z,68.90
2018-07-25T00:28:25.904Z,56.00
2018-07-25T00:30:54.414Z,68.90
2018-07-25T00:33:22.867Z,76.70
2018-07-25T00:35:51.361Z,90.40
2018-07-25T00:38:19.831Z,82.90
2018-07-25T00:40:48.332Z,83.70
2018-07-25T00:43:16.804Z,80.90
2018-07-25T00:45:45.547Z,78.70
2018-07-25T00:48:14.035Z,82.80
2018-07-25T00:50:42.548Z,96.60
2018-07-25T00:53:11.045Z,94.30
2018-07-25T00:55:39.581Z,91.10
2018-07-25T00:58:08.368Z,88.90
2018-07-25T01:00:36.854Z,92.90
2018-07-25T01:03:05.326Z,96.60
2018-07-25T01:05:33.802Z,94.60
2018-07-25T01:08:02.309Z,92.60
2018-07-25T01:10:30.808Z,91.20
2018-07-25T01:12:59.409Z,92.10
2018-07-25T01:15:27.881Z,93.20
2018-07-25T01:17:56.360Z,93.90
2018-07-25T01:20:24.867Z,99.90
2018-07-25T01:22:53.356Z,98.80
2018-07-25T01:25:21.844Z,99.70
2018-07-25T01:27:50.332Z,98.40
2018-07-25T01:30:18.811Z,99.90
2018-07-25T01:32:47.288Z,99.00
2018-07-25T01:35:15.778Z,99.70
2018-07-25T01:37:44.273Z,98.40
2018-07-25T01:40:12.874Z,99.90
2018-07-25T01:42:41.467Z,97.40
2018-07-25T01:45:10.006Z,96.40
2018-07-25T01:47:38.546Z,99.90
2018-07-25T01:50:07.744Z,99.90
2018-07-25T01:52:36.221Z,99.90
2018-07-25T01:55:06.018Z,99.90
2018-07-25T01:57:34.514Z,99.90
2018-07-25T02:00:03.036Z,99.90
2018-07-25T02:02:31.534Z,99.90
2018-07-25T02:04:59.992Z,99.90
2018-07-25T02:07:28.452Z,99.90
2018-07-25T02:09:56.954Z,99.90
2018-07-25T02:12:25.444Z,99.90
2018-07-25T02:14:53.973Z,99.90
2018-07-25T02:17:22.462Z,99.90
2018-07-25T02:19:50.945Z,99.90
2018-07-25T02:22:19.643Z,99.90
2018-07-25T02:24:48.146Z,99.90
2018-07-25T02:27:16.642Z,99.90
2018-07-25T02:29:45.164Z,99.90
2018-07-25T02:32:13.647Z,99.90
2018-07-25T02:34:42.147Z,99.90
2018-07-25T02:37:10.598Z,99.90
2018-07-25T02:39:39.095Z,99.90
2018-07-25T02:42:07.695Z,99.90
2018-07-25T02:44:36.193Z,99.90
2018-07-25T02:47:04.698Z,99.90
2018-07-25T02:49:33.343Z,99.90
2018-07-25T02:52:01.829Z,99.90
2018-07-25T02:54:30.303Z,99.90
2018-07-25T02:56:58.810Z,99.90
2018-07-25T02:59:27.270Z,99.90
2018-07-25T03:01:55.732Z,99.90
2018-07-25T03:04:24.221Z,99.90
2018-07-25T03:06:52.718Z,99.90
2018-07-25T03:09:21.216Z,99.90
2018-07-25T03:11:49.697Z,99.90
2018-07-25T03:14:18.212Z,99.90
2018-07-25T03:16:46.778Z,99.90
2018-07-25T03:19:15.221Z,99.90
2018-07-25T03:21:43.719Z,99.90
2018-07-25T03:24:12.250Z,99.90
2018-07-25T03:26:40.720Z,99.90
2018-07-25T03:29:09.259Z,99.90
2018-07-25T03:31:37.777Z,99.90
2018-07-25T03:34:06.287Z,99.90
2018-07-25T03:36:34.804Z,99.90
2018-07-25T03:39:03.405Z,99.90
2018-07-25T03:41:31.916Z,99.90
2018-07-25T03:44:00.393Z,99.90
2018-07-25T03:46:28.893Z,99.90
2018-07-25T03:48:57.395Z,99.90
2018-07-25T03:51:25.890Z,99.90
2018-07-25T03:53:54.374Z,99.90
2018-07-25T03:56:22.866Z,99.90
2018-07-25T03:58:51.358Z,99.90
2018-07-25T04:01:19.926Z,99.90
2018-07-25T04:03:48.420Z,99.90
2018-07-25T04:06:16.907Z,99.90
2018-07-25T04:08:45.388Z,99.90
2018-07-25T04:11:14.018Z,99.90
2018-07-25T04:13:42.522Z,99.90
2018-07-25T04:16:11.086Z,99.90
2018-07-25T04:18:39.646Z,99.90
2018-07-25T04:21:08.157Z,99.90
2018-07-25T04:23:36.692Z,99.90
2018-07-25T04:26:05.341Z,99.90
2018-07-25T04:28:33.867Z,99.90
2018-07-25T04:31:02.453Z,99.90
2018-07-25T04:33:30.958Z,99.90
2018-07-25T04:35:59.482Z,99.90
2018-07-25T04:38:27.964Z,99.90
2018-07-25T04:40:56.445Z,99.90
2018-07-25T04:43:24.987Z,99.90
2018-07-25T04:45:53.569Z,99.90
2018-07-25T04:48:22.193Z,99.90
2018-07-25T04:50:50.711Z,99.90
2018-07-25T04:53:19.250Z,99.90
2018-07-25T04:55:47.771Z,99.90
2018-07-25T04:58:16.322Z,99.90
2018-07-25T05:00:44.898Z,99.90
2018-07-25T05:03:13.386Z,99.90
2018-07-25T05:05:41.875Z,99.90
2018-07-25T05:08:10.409Z,99.90
2018-07-25T05:10:38.945Z,99.90
2018-07-25T05:13:07.595Z,99.90
2018-07-25T05:15:36.115Z,98.80
2018-07-25T05:18:04.646Z,96.60
2018-07-25T05:20:33.153Z,93.40
2018-07-25T05:23:01.667Z,88.10
2018-07-25T05:25:30.206Z,90.90
2018-07-25T05:27:58.803Z,88.10
2018-07-25T05:30:27.264Z,70.40
2018-07-25T05:32:55.770Z,68.90
2018-07-25T05:35:24.263Z,53.90
2018-07-25T05:37:52.776Z,48.30
2018-07-25T05:40:21.252Z,41.10
2018-07-25T05:42:49.766Z,32.60
2018-07-25T05:45:18.265Z,26.90
2018-07-25T05:47:46.750Z,13.80
2018-07-25T05:52:43.380Z,1.00
2018-07-25T05:55:11.887Z,1.00
2018-07-25T05:57:40.355Z,1.00
2018-07-25T06:00:08.923Z,1.00
2018-07-25T06:02:37.433Z,1.00
2018-07-25T06:05:05.972Z,1.00
2018-07-25T06:07:34.537Z,1.00
2018-07-25T06:10:03.076Z,1.00
2018-07-25T06:12:31.546Z,1.00
2018-07-25T06:15:00.024Z,1.00
2018-07-25T06:17:28.806Z,1.00
2018-07-25T06:19:57.321Z,1.00
2018-07-25T06:22:25.802Z,1.00
2018-07-25T06:24:54.316Z,1.00
2018-07-25T06:27:22.794Z,1.00
2018-07-25T06:29:51.253Z,99.90
2018-07-25T06:32:20.091Z,1.00
2018-07-25T06:34:48.743Z,99.90
2018-07-25T06:37:17.195Z,1.00
2018-07-25T06:39:45.767Z,99.90
2018-07-25T06:42:14.613Z,99.90
2018-07-25T06:44:43.071Z,99.90
2018-07-25T06:47:11.702Z,28.50
2018-07-25T06:49:40.291Z,1.00
2018-07-25T06:52:08.838Z,99.90
2018-07-25T06:54:37.603Z,99.90
2018-07-25T06:57:06.256Z,13.60
2018-07-25T06:59:34.748Z,99.90
2018-07-25T07:02:03.622Z,1.00
2018-07-25T07:04:32.071Z,1.00
2018-07-25T07:07:00.634Z,1.00
2018-07-25T07:09:29.221Z,99.90
2018-07-25T07:11:57.812Z,99.90
2018-07-25T07:14:26.289Z,99.90
2018-07-25T07:16:54.931Z,99.90
2018-07-25T07:19:23.448Z,99.90
2018-07-25T07:21:51.935Z,99.90
2018-07-25T07:24:20.462Z,99.90
2018-07-25T07:26:48.927Z,99.90
2018-07-25T07:29:17.437Z,99.90
2018-07-25T07:31:45.979Z,99.90
2018-07-25T07:34:14.790Z,99.90
2018-07-25T07:36:43.359Z,99.90
2018-07-25T07:39:13.380Z,99.90
2018-07-25T07:41:42.255Z,99.90
2018-07-25T07:44:10.908Z,99.90
2018-07-25T07:46:39.498Z,99.90
2018-07-25T07:49:08.012Z,99.90
2018-07-25T07:51:36.494Z,99.90
2018-07-25T07:54:05.150Z,99.90
2018-07-25T07:56:33.788Z,99.90
2018-07-25T07:59:02.304Z,99.90
2018-07-25T08:01:30.806Z,99.90
2018-07-25T08:03:59.280Z,99.90
2018-07-25T08:06:27.747Z,99.90
2018-07-25T08:08:56.222Z,99.90
2018-07-25T08:11:24.698Z,99.90
2018-07-25T08:13:53.129Z,99.90
2018-07-25T08:16:21.607Z,99.90
2018-07-25T08:18:50.138Z,99.90
2018-07-25T08:21:18.716Z,99.90
2018-07-25T08:23:47.339Z,99.90
2018-07-25T08:26:15.817Z,99.90
2018-07-25T08:28:44.494Z,99.90
2018-07-25T08:31:12.975Z,99.90
2018-07-25T08:33:41.467Z,99.90
2018-07-25T08:36:10.002Z,99.90
2018-07-25T08:41:11.200Z,99.90
2018-07-25T08:43:41.083Z,99.90
2018-07-25T08:46:10.835Z,99.90
2018-07-25T08:48:39.696Z,99.90
2018-07-25T08:51:08.255Z,99.90
2018-07-25T08:53:37.247Z,99.90
2018-07-25T08:56:05.984Z,99.90
2018-07-25T08:58:34.477Z,99.90
2018-07-25T09:01:03.011Z,99.90
2018-07-25T09:03:31.577Z,99.90
2018-07-25T09:06:00.183Z,99.90
2018-07-25T09:08:28.639Z,99.90
2018-07-25T09:10:57.146Z,99.90
2018-07-25T09:13:25.664Z,99.90
2018-07-25T09:15:54.183Z,99.90
2018-07-25T09:18:22.666Z,99.90
2018-07-25T09:20:51.135Z,99.90
2018-07-25T09:23:19.583Z,99.90
2018-07-25T09:25:48.039Z,99.90
2018-07-25T09:28:16.526Z,99.90
2018-07-25T09:30:45.101Z,99.90
2018-07-25T09:33:13.605Z,99.90
2018-07-25T09:35:42.103Z,99.90
2018-07-25T09:38:11.070Z,99.90
2018-07-25T09:40:39.592Z,99.90
2018-07-25T09:43:08.170Z,99.90
2018-07-25T09:45:36.750Z,99.90
2018-07-25T09:48:05.496Z,99.90
2018-07-25T09:50:34.173Z,99.90
2018-07-25T09:53:02.711Z,99.90
2018-07-25T09:55:31.174Z,99.90
2018-07-25T09:58:00.064Z,99.90
2018-07-25T10:01:01.331Z,99.90
2018-07-25T10:03:30.081Z,99.90
2018-07-25T10:05:58.728Z,99.90
2018-07-25T10:08:27.376Z,99.90
2018-07-25T10:13:24.238Z,99.90
2018-07-25T10:15:52.816Z,99.90
2018-07-25T10:18:21.338Z,99.90
2018-07-25T10:20:49.879Z,99.90
2018-07-25T10:23:18.358Z,99.90
2018-07-25T10:25:46.843Z,99.90
2018-07-25T10:28:15.368Z,99.90
2018-07-25T10:30:43.872Z,99.90
2018-07-25T10:33:12.482Z,99.90
2018-07-25T10:35:40.962Z,99.90
2018-07-25T10:38:09.466Z,99.90
2018-07-25T10:40:38.048Z,99.90
2018-07-25T10:45:34.768Z,99.90
2018-07-25T10:48:03.328Z,99.90
2018-07-25T10:50:31.850Z,99.90
2018-07-25T10:53:00.390Z,99.90
2018-07-25T10:55:28.870Z,99.90
2018-07-25T10:57:57.343Z,99.90
2018-07-25T11:00:25.827Z,99.90
2018-07-25T11:02:54.388Z,99.90
2018-07-25T11:05:22.895Z,99.90
2018-07-25T11:07:51.403Z,99.90
2018-07-25T11:10:19.899Z,99.90
2018-07-25T11:12:48.422Z,99.90
2018-07-25T11:15:16.935Z,99.90
2018-07-25T11:17:45.425Z,99.90
2018-07-25T11:20:13.984Z,99.90
2018-07-25T11:22:42.482Z,99.90
2018-07-25T11:25:10.950Z,99.90
2018-07-25T11:27:39.419Z,99.90
2018-07-25T11:30:08.049Z,99.90
2018-07-25T11:32:36.566Z,99.90
2018-07-25T11:35:05.979Z,99.90
2018-07-25T11:37:34.419Z,99.90
2018-07-25T11:40:03.920Z,99.90
2018-07-25T11:42:32.500Z,99.90
2018-07-25T11:45:01.000Z,99.90
2018-07-25T11:47:29.491Z,99.90
2018-07-25T11:49:57.991Z,99.90
2018-07-25T11:52:26.528Z,99.90
2018-07-25T11:54:55.115Z,99.90
2018-07-25T11:57:23.591Z,99.90
2018-07-25T11:59:52.071Z,99.90
2018-07-25T12:02:20.551Z,99.90
2018-07-25T12:04:49.173Z,99.90
2018-07-25T12:07:17.764Z,99.90
2018-07-25T12:09:46.298Z,99.90
2018-07-25T12:12:14.765Z,99.90
2018-07-25T12:14:43.271Z,99.90
2018-07-25T12:17:11.795Z,99.90
2018-07-25T12:19:40.299Z,99.90
2018-07-25T12:22:08.975Z,99.90
2018-07-25T12:24:37.571Z,99.90
2018-07-25T12:27:06.159Z,99.90
2018-07-25T12:29:34.847Z,99.90
2018-07-25T12:32:03.546Z,99.90
2018-07-25T12:34:31.963Z,99.90
2018-07-25T12:37:00.496Z,99.90
2018-07-25T12:39:29.041Z,99.90
2018-07-25T12:41:57.571Z,99.90
2018-07-25T12:44:26.371Z,99.90
2018-07-25T12:46:54.887Z,99.90
2018-07-25T12:49:23.467Z,99.90
2018-07-25T12:51:52.087Z,99.90
2018-07-25T12:54:20.582Z,99.90
2018-07-25T12:56:49.094Z,99.90
2018-07-25T12:59:17.563Z,99.90
2018-07-25T13:01:46.039Z,99.90
2018-07-25T13:04:14.560Z,99.90
2018-07-25T13:06:43.119Z,99.90
2018-07-25T13:09:12.462Z,99.90
2018-07-25T13:11:41.001Z,99.90
2018-07-25T13:14:10.064Z,99.90
2018-07-25T13:16:38.873Z,99.90
2018-07-25T13:19:07.378Z,99.90
2018-07-25T13:21:36.263Z,99.90
2018-07-25T13:24:04.867Z,99.90
2018-07-25T13:26:33.371Z,99.90
2018-07-25T13:29:01.886Z,99.90
2018-07-25T13:31:30.379Z,99.90
2018-07-25T13:33:58.866Z,99.90
2018-07-25T13:36:27.372Z,99.90
2018-07-25T13:38:55.904Z,99.90
2018-07-25T13:41:24.429Z,99.90
2018-07-25T13:43:52.916Z,99.90
2018-07-25T13:46:22.087Z,99.90
2018-07-25T13:48:50.435Z,99.90
2018-07-25T13:51:19.071Z,99.90
2018-07-25T13:53:47.838Z,99.90
2018-07-25T13:56:16.472Z,99.90
2018-07-25T13:58:45.219Z,99.90
2018-07-25T14:01:13.947Z,99.90
2018-07-25T14:03:42.513Z,99.90
2018-07-25T14:06:11.012Z,99.90
2018-07-25T14:08:39.975Z,99.90
2018-07-25T14:11:09.080Z,99.90
2018-07-25T14:13:37.560Z,99.90
2018-07-25T14:16:06.770Z,99.90
2018-07-25T14:18:35.381Z,99.90
2018-07-25T14:21:03.947Z,99.90
2018-07-25T14:23:32.514Z,99.90
2018-07-25T14:26:01.105Z,99.90
2018-07-25T14:28:29.662Z,99.90
2018-07-25T14:30:58.258Z,99.90
2018-07-25T14:33:26.799Z,99.90
2018-07-25T14:35:55.387Z,99.90
2018-07-25T14:38:23.937Z,99.90
2018-07-25T14:40:52.487Z,99.90
2018-07-25T14:43:21.071Z,99.90
2018-07-25T14:45:49.555Z,99.90
2018-07-25T14:48:18.089Z,99.90
2018-07-25T14:50:46.594Z,99.90
2018-07-25T14:53:15.926Z,99.90
2018-07-25T14:55:44.532Z,99.90
2018-07-25T15:00:41.250Z,99.90
2018-07-25T15:03:09.786Z,99.90
2018-07-25T15:08:07.519Z,99.90
2018-07-25T15:10:36.066Z,99.90
2018-07-25T15:13:04.563Z,99.90
2018-07-25T15:15:33.081Z,99.90
2018-07-25T15:18:01.640Z,99.90
2018-07-25T15:20:30.155Z,99.90
2018-07-25T15:22:58.671Z,99.90
2018-07-25T15:25:27.201Z,99.90
2018-07-25T15:27:55.715Z,99.90
2018-07-25T15:30:24.252Z,99.90
2018-07-25T15:32:52.803Z,99.90
2018-07-25T15:35:21.341Z,99.90
2018-07-25T15:37:49.899Z,99.90
2018-07-25T15:40:18.450Z,99.90
2018-07-25T15:42:47.030Z,99.90
2018-07-25T15:47:43.834Z,99.90
2018-07-25T15:50:12.381Z,99.90
2018-07-25T15:52:40.893Z,99.90
2018-07-25T15:55:09.407Z,99.90
2018-07-25T15:57:38.012Z,99.90
2018-07-25T16:00:07.975Z,99.90
2018-07-25T16:02:36.494Z,99.90
2018-07-25T16:05:05.080Z,99.90
2018-07-25T16:07:33.647Z,99.90
2018-07-25T16:10:02.166Z,99.90
2018-07-25T16:12:30.697Z,99.90
2018-07-25T16:14:59.219Z,99.90
2018-07-25T16:17:27.764Z,99.90
2018-07-25T16:19:56.395Z,99.90
2018-07-25T16:22:24.974Z,99.90
2018-07-25T16:24:53.520Z,99.90
2018-07-25T16:27:22.096Z,99.90
2018-07-25T16:29:50.611Z,99.90
2018-07-25T16:32:19.203Z,99.90
2018-07-25T16:34:47.728Z,99.90
2018-07-25T16:37:16.281Z,99.90
2018-07-25T16:39:44.771Z,99.90
2018-07-25T16:42:13.323Z,99.90
2018-07-25T16:44:41.815Z,99.90
2018-07-25T16:47:10.393Z,99.90
2018-07-25T16:49:38.942Z,99.90
2018-07-25T16:52:07.498Z,99.90
2018-07-25T16:54:36.024Z,99.90
2018-07-25T16:57:04.747Z,99.90
2018-07-25T16:59:33.274Z,99.90
2018-07-25T17:02:01.838Z,99.90
2018-07-25T17:04:30.403Z,99.90
2018-07-25T17:06:58.931Z,99.90
2018-07-25T17:09:27.446Z,99.90
2018-07-25T17:11:55.958Z,99.90
2018-07-25T17:14:24.573Z,99.90
2018-07-25T17:19:21.291Z,99.90
2018-07-25T17:21:49.792Z,99.90
2018-07-25T17:24:18.350Z,99.90
2018-07-25T17:26:46.886Z,99.90
2018-07-25T17:29:15.383Z,99.90
2018-07-25T17:31:43.922Z,99.90
2018-07-25T17:34:12.440Z,99.90
2018-07-25T17:36:41.087Z,99.90
2018-07-25T17:39:10.914Z,99.90
2018-07-25T17:41:40.251Z,99.90
2018-07-25T17:44:08.805Z,99.90
2018-07-25T17:46:37.370Z,99.90
2018-07-25T17:49:05.957Z,99.90
2018-07-25T17:51:34.643Z,99.90
2018-07-25T17:54:03.209Z,99.90
2018-07-25T17:56:31.733Z,99.90
2018-07-25T17:59:00.233Z,99.90
2018-07-25T18:01:35.230Z,99.90
2018-07-25T18:04:03.867Z,99.90
2018-07-25T18:06:32.460Z,99.90
2018-07-25T18:09:00.994Z,99.90
2018-07-25T18:11:29.563Z,99.90
2018-07-25T18:14:03.505Z,99.90
2018-07-25T18:16:32.098Z,99.90
2018-07-25T18:19:00.622Z,99.90
2018-07-25T18:21:29.138Z,99.90
2018-07-25T18:23:57.779Z,99.90
2018-07-25T18:26:26.307Z,99.90
2018-07-25T18:28:54.939Z,99.90
2018-07-25T18:31:23.596Z,99.90
2018-07-25T18:33:52.189Z,99.90
2018-07-25T18:36:20.712Z,99.90
2018-07-25T18:38:49.492Z,99.90
2018-07-25T18:41:18.115Z,99.90
2018-07-25T18:43:46.891Z,99.90
2018-07-25T18:46:15.785Z,99.90
2018-07-25T18:48:44.718Z,99.90
2018-07-25T18:51:13.687Z,99.90
2018-07-25T18:53:42.598Z,99.90
2018-07-25T18:56:11.534Z,99.90
2018-07-25T18:58:40.398Z,99.90
2018-07-25T19:01:09.254Z,99.90
2018-07-25T19:03:38.132Z,99.90
2018-07-25T19:06:06.744Z,99.90
2018-07-25T19:08:35.529Z,99.90
2018-07-25T19:11:04.168Z,99.90
2018-07-25T19:13:34.272Z,99.90
2018-07-25T19:16:03.616Z,99.90
2018-07-25T19:18:32.538Z,99.90
2018-07-25T19:21:01.423Z,99.90
2018-07-25T19:23:30.313Z,99.90
2018-07-25T19:25:59.197Z,99.90
2018-07-25T19:30:55.965Z,99.90
2018-07-25T19:33:24.768Z,99.90
2018-07-25T19:35:53.443Z,99.90
2018-07-25T19:38:21.996Z,99.90
2018-07-25T19:40:50.540Z,99.90
2018-07-25T19:43:19.331Z,99.90
2018-07-25T19:45:47.947Z,99.90
2018-07-25T19:48:16.695Z,99.90
2018-07-25T19:50:45.272Z,99.90
2018-07-25T19:53:14.116Z,99.90
2018-07-25T19:55:42.782Z,99.90
2018-07-25T19:58:11.272Z,99.90
2018-07-25T20:00:39.913Z,99.90
2018-07-25T20:03:08.524Z,99.90
2018-07-25T20:05:37.022Z,99.90
2018-07-25T20:08:06.364Z,99.90
2018-07-25T20:10:36.052Z,99.90
2018-07-25T20:13:04.702Z,99.90
2018-07-25T20:15:38.569Z,99.90
2018-07-25T20:18:07.565Z,99.90
2018-07-25T20:20:36.384Z,99.90
2018-07-25T20:23:05.035Z,99.90
2018-07-25T20:25:33.902Z,1.00
2018-07-25T20:28:02.812Z,1.00
2018-07-25T20:30:31.624Z,99.90
2018-07-25T20:33:00.295Z,99.90
2018-07-25T20:35:28.976Z,1.00
2018-07-25T20:37:57.832Z,99.90
2018-07-25T20:40:26.632Z,1.00
2018-07-25T20:42:55.406Z,1.00
2018-07-25T20:45:24.232Z,1.00
2018-07-25T20:47:53.145Z,12.80
2018-07-25T20:50:23.121Z,99.90
2018-07-25T20:52:52.045Z,99.90
2018-07-25T20:55:20.668Z,1.00
2018-07-25T20:57:49.283Z,1.00
2018-07-25T21:03:02.084Z,1.00
2018-07-25T21:05:30.944Z,1.00
2018-07-25T21:07:59.552Z,1.00
2018-07-25T21:10:28.162Z,99.90
2018-07-25T21:12:56.908Z,1.00
2018-07-25T21:15:25.552Z,99.90
2018-07-25T21:17:54.191Z,99.90
2018-07-25T21:20:23.331Z,99.90
2018-07-25T21:22:51.916Z,99.90
2018-07-25T21:25:21.027Z,99.90
2018-07-25T21:27:49.573Z,99.90
2018-07-25T21:30:18.133Z,1.00
2018-07-25T21:32:46.813Z,1.00
2018-07-25T21:35:15.441Z,99.90
2018-07-25T21:37:44.497Z,28.30
2018-07-25T21:40:13.182Z,99.90
2018-07-25T21:42:41.834Z,99.90
2018-07-25T21:45:10.667Z,1.00
2018-07-25T21:47:39.531Z,1.00
2018-07-25T21:50:08.257Z,99.90
2018-07-25T21:52:36.878Z,1.00
2018-07-25T21:55:05.658Z,99.90
2018-07-25T21:57:34.232Z,99.90
2018-07-25T22:00:03.010Z,99.90
2018-07-25T22:02:31.869Z,1.00
2018-07-25T22:05:00.484Z,99.90
2018-07-25T22:07:29.112Z,99.90
2018-07-25T22:09:57.680Z,1.00
2018-07-25T22:12:26.620Z,99.90
2018-07-25T22:14:55.270Z,1.00
2018-07-25T22:17:23.899Z,1.00
2018-07-25T22:19:52.460Z,99.90
2018-07-25T22:22:21.101Z,68.10
2018-07-25T22:24:49.684Z,99.90
2018-07-25T22:27:18.240Z,99.90
2018-07-25T22:29:46.820Z,99.90
2018-07-25T22:32:15.420Z,44.90
2018-07-25T22:34:44.323Z,1.00
2018-07-25T22:37:12.908Z,99.90
2018-07-25T22:39:41.483Z,99.90
2018-07-25T22:42:10.148Z,1.00
2018-07-25T22:44:39.446Z,99.90
2018-07-25T22:47:07.984Z,1.00
2018-07-25T22:52:05.261Z,99.90
2018-07-25T22:54:33.803Z,1.00
2018-07-25T22:57:02.342Z,1.00
2018-07-25T22:59:30.911Z,99.90
2018-07-25T23:04:27.744Z,1.00
2018-07-25T23:06:56.292Z,1.00
2018-07-25T23:09:24.851Z,99.90
2018-07-25T23:11:53.475Z,43.50
2018-07-25T23:14:22.432Z,99.90
2018-07-25T23:16:51.056Z,99.90
2018-07-25T23:19:19.693Z,99.90
2018-07-25T23:21:48.243Z,99.90
2018-07-25T23:24:16.769Z,1.00
2018-07-25T23:26:45.352Z,1.00
2018-07-25T23:29:14.187Z,1.00
2018-07-25T23:31:42.761Z,1.00
2018-07-25T23:34:11.640Z,1.00
2018-07-25T23:36:40.228Z,1.00
2018-07-25T23:39:10.186Z,1.00
2018-07-25T23:41:38.896Z,1.00
2018-07-25T23:44:07.985Z,1.00
2018-07-25T23:46:38.090Z,1.00
2018-07-25T23:49:06.685Z,1.00
2018-07-25T23:51:35.525Z,1.00
2018-07-25T23:54:04.236Z,1.00
2018-07-25T23:56:32.818Z,1.00
2018-07-25T23:59:01.357Z,1.00
